createdAt,value
2023-01-29T00:01:44.056Z,26.13
2023-01-29T00:04:10.723Z,28.02
2023-01-29T00:06:37.265Z,24.63
2023-01-29T00:09:03.900Z,22.45
2023-01-29T00:11:31.847Z,26.33
2023-01-29T00:13:58.644Z,24.00
2023-01-29T00:16:25.220Z,26.92
2023-01-29T00:18:51.932Z,24.90
2023-01-29T00:21:20.444Z,24.05
2023-01-29T00:23:47.109Z,21.77
2023-01-29T00:26:14.345Z,24.05
2023-01-29T00:28:44.358Z,25.58
2023-01-29T00:31:19.260Z,25.58
2023-01-29T00:33:46.053Z,24.92
2023-01-29T00:36:14.690Z,25.65
2023-01-29T00:38:41.334Z,27.13
2023-01-29T00:41:27.020Z,25.00
2023-01-29T00:44:12.720Z,25.05
2023-01-29T00:46:39.449Z,23.80
2023-01-29T00:49:06.761Z,25.33
2023-01-29T00:51:33.297Z,25.52
2023-01-29T00:54:02.603Z,31.45
2023-01-29T00:56:30.255Z,23.77
2023-01-29T00:58:57.137Z,26.73
2023-01-29T01:01:42.467Z,28.83
2023-01-29T01:04:12.021Z,26.02
2023-01-29T01:06:39.627Z,30.13
2023-01-29T01:09:25.787Z,24.38
2023-01-29T01:11:52.654Z,25.98
2023-01-29T01:14:20.454Z,26.80
2023-01-29T01:16:48.125Z,22.10
2023-01-29T01:19:16.045Z,29.52
2023-01-29T01:21:45.423Z,27.95
2023-01-29T01:24:12.878Z,27.63
2023-01-29T01:26:39.905Z,22.33
2023-01-29T01:29:06.613Z,22.30
2023-01-29T01:31:33.195Z,29.95
2023-01-29T01:33:59.835Z,25.00
2023-01-29T01:36:26.360Z,28.52
2023-01-29T01:38:54.160Z,27.63
2023-01-29T01:41:21.916Z,29.42
2023-01-29T01:44:00.122Z,24.38
2023-01-29T01:46:32.010Z,24.95
2023-01-29T01:49:02.782Z,26.75
2023-01-29T01:51:31.912Z,28.10
2023-01-29T01:54:03.487Z,23.50
2023-01-29T01:56:38.425Z,27.23
2023-01-29T01:59:08.057Z,24.50
2023-01-29T02:01:34.643Z,26.55
2023-01-29T02:04:28.987Z,22.88
2023-01-29T02:10:06.416Z,25.23
2023-01-29T02:12:33.074Z,27.08
2023-01-29T02:14:59.828Z,25.58
2023-01-29T02:17:26.534Z,24.05
2023-01-29T02:20:12.271Z,26.95
2023-01-29T02:22:56.009Z,26.08
2023-01-29T02:25:58.425Z,23.98
2023-01-29T02:28:54.419Z,26.70
2023-01-29T02:31:41.668Z,23.48
2023-01-29T02:34:53.011Z,23.92
2023-01-29T02:37:23.506Z,23.98
2023-01-29T02:40:09.266Z,25.27
2023-01-29T02:42:47.510Z,29.67
2023-01-29T02:45:18.588Z,25.88
2023-01-29T02:48:05.445Z,22.98
2023-01-29T02:50:42.104Z,23.30
2023-01-29T02:53:46.397Z,23.15
2023-01-29T02:56:20.856Z,25.75
2023-01-29T02:59:03.540Z,24.75
2023-01-29T03:01:33.353Z,25.55
2023-01-29T03:04:04.539Z,26.25
2023-01-29T03:06:35.524Z,25.50
2023-01-29T03:09:11.213Z,28.42
2023-01-29T03:11:41.484Z,25.42
2023-01-29T03:14:13.343Z,29.13
2023-01-29T03:16:45.063Z,24.25
2023-01-29T03:19:36.239Z,26.85
2023-01-29T03:22:10.004Z,23.73
2023-01-29T03:25:05.525Z,24.90
2023-01-29T03:27:56.061Z,26.10
2023-01-29T03:30:44.604Z,26.95
2023-01-29T03:36:02.572Z,29.85
2023-01-29T03:38:32.153Z,25.83
2023-01-29T03:41:10.148Z,24.80
2023-01-29T03:44:10.644Z,27.40
2023-01-29T03:47:20.394Z,29.85
2023-01-29T03:50:02.942Z,30.00
2023-01-29T03:52:43.006Z,28.10
2023-01-29T03:55:17.202Z,27.58
2023-01-29T03:57:57.218Z,29.65
2023-01-29T04:00:29.125Z,26.00
2023-01-29T04:03:22.020Z,30.42
2023-01-29T04:06:05.439Z,29.98
2023-01-29T04:08:48.238Z,31.02
2023-01-29T04:11:18.907Z,31.98
2023-01-29T04:13:46.273Z,29.52
2023-01-29T04:16:21.814Z,33.45
2023-01-29T04:19:09.028Z,32.20
2023-01-29T04:21:39.829Z,30.35
2023-01-29T04:24:07.258Z,30.98
2023-01-29T04:26:42.983Z,30.30
2023-01-29T04:29:24.931Z,30.77
2023-01-29T04:32:10.895Z,32.22
2023-01-29T04:34:49.164Z,33.53
2023-01-29T04:37:29.015Z,31.75
2023-01-29T04:40:15.490Z,32.78
2023-01-29T04:42:53.245Z,33.45
2023-01-29T04:45:33.310Z,32.17
2023-01-29T04:48:22.857Z,32.60
2023-01-29T04:50:55.528Z,35.05
2023-01-29T04:53:28.918Z,33.40
2023-01-29T04:55:59.459Z,40.08
2023-01-29T04:58:26.911Z,31.67
2023-01-29T05:00:54.543Z,36.40
2023-01-29T05:03:23.847Z,34.05
2023-01-29T05:05:50.997Z,34.05
2023-01-29T05:08:20.765Z,34.97
2023-01-29T05:10:48.728Z,36.22
2023-01-29T05:13:16.703Z,36.90
2023-01-29T05:15:56.667Z,35.92
2023-01-29T05:18:23.406Z,37.65
2023-01-29T05:20:50.349Z,37.33
2023-01-29T05:23:18.440Z,36.88
2023-01-29T05:25:45.600Z,33.75
2023-01-29T05:28:16.548Z,34.60
2023-01-29T05:30:50.614Z,35.53
2023-01-29T05:33:19.919Z,38.80
2023-01-29T05:35:47.064Z,36.92
2023-01-29T05:38:13.883Z,31.63
2023-01-29T05:40:40.589Z,35.25
2023-01-29T05:43:17.877Z,33.95
2023-01-29T05:45:52.658Z,33.42
2023-01-29T05:48:19.251Z,34.65
2023-01-29T05:50:45.768Z,32.70
2023-01-29T05:53:12.308Z,34.28
2023-01-29T05:55:38.869Z,33.22
2023-01-29T05:58:06.178Z,32.63
2023-01-29T06:00:32.811Z,34.28
2023-01-29T06:02:59.976Z,33.33
2023-01-29T06:05:26.603Z,35.72
2023-01-29T06:07:53.165Z,36.85
2023-01-29T06:10:20.126Z,36.85
2023-01-29T06:12:46.929Z,34.50
2023-01-29T06:15:15.514Z,33.15
2023-01-29T06:17:42.629Z,33.00
2023-01-29T06:20:10.034Z,34.47
2023-01-29T06:22:36.571Z,34.20
2023-01-29T06:25:03.771Z,32.78
2023-01-29T06:27:30.351Z,34.72
2023-01-29T06:29:56.980Z,35.08
2023-01-29T06:32:23.650Z,33.80
2023-01-29T06:34:50.261Z,34.08
2023-01-29T06:37:16.781Z,35.25
2023-01-29T06:39:43.416Z,34.88
2023-01-29T06:42:11.164Z,35.88
2023-01-29T06:44:37.704Z,32.20
2023-01-29T06:47:04.291Z,36.35
2023-01-29T06:49:30.937Z,35.22
2023-01-29T06:51:57.523Z,37.03
2023-01-29T06:54:24.169Z,33.00
2023-01-29T06:56:51.752Z,33.35
2023-01-29T06:59:18.391Z,34.17
2023-01-29T07:01:45.094Z,32.75
2023-01-29T07:04:11.726Z,34.05
2023-01-29T07:06:38.352Z,31.90
2023-01-29T07:09:05.099Z,34.50
2023-01-29T07:11:32.272Z,36.20
2023-01-29T07:13:58.861Z,37.28
2023-01-29T07:16:26.355Z,29.60
2023-01-29T07:18:53.303Z,34.30
2023-01-29T07:21:19.993Z,32.25
2023-01-29T07:23:46.606Z,34.15
2023-01-29T07:26:13.197Z,33.55
2023-01-29T07:28:40.667Z,29.23
2023-01-29T07:31:07.839Z,32.35
2023-01-29T07:33:34.607Z,26.23
2023-01-29T07:36:01.172Z,25.50
2023-01-29T07:38:27.838Z,27.08
2023-01-29T07:40:54.486Z,27.35
2023-01-29T07:43:21.082Z,27.38
2023-01-29T07:45:47.747Z,27.23
2023-01-29T07:48:14.352Z,27.38
2023-01-29T07:50:41.177Z,30.45
2023-01-29T07:53:07.805Z,27.83
2023-01-29T07:55:34.513Z,25.48
2023-01-29T07:58:02.980Z,31.55
2023-01-29T08:00:31.327Z,29.88
2023-01-29T08:03:13.641Z,30.58
2023-01-29T08:05:40.203Z,28.10
2023-01-29T08:08:07.890Z,30.00
2023-01-29T08:10:39.029Z,24.75
2023-01-29T08:13:06.616Z,25.58
2023-01-29T08:15:33.893Z,28.38
2023-01-29T08:18:03.838Z,30.58
2023-01-29T08:20:30.686Z,26.30
2023-01-29T08:23:06.200Z,27.63
2023-01-29T08:25:33.227Z,28.58
2023-01-29T08:28:00.521Z,29.88
2023-01-29T08:30:29.183Z,29.40
2023-01-29T08:32:55.706Z,27.67
2023-01-29T08:35:22.410Z,26.58
2023-01-29T08:38:00.123Z,28.92
2023-01-29T08:40:28.623Z,34.03
2023-01-29T08:43:03.534Z,27.25
2023-01-29T08:45:33.699Z,26.52
2023-01-29T08:48:00.281Z,29.98
2023-01-29T08:50:27.263Z,29.25
2023-01-29T08:52:57.890Z,30.10
2023-01-29T08:55:24.509Z,29.05
2023-01-29T08:57:51.110Z,23.98
2023-01-29T09:00:18.459Z,28.13
2023-01-29T09:02:45.324Z,26.52
2023-01-29T09:05:11.931Z,27.35
2023-01-29T09:07:38.482Z,27.02
2023-01-29T09:10:05.460Z,27.55
2023-01-29T09:12:32.161Z,28.60
2023-01-29T09:14:58.820Z,34.60
2023-01-29T09:17:25.540Z,26.50
2023-01-29T09:19:53.242Z,29.13
2023-01-29T09:22:20.331Z,26.83
2023-01-29T09:24:46.896Z,25.30
2023-01-29T09:27:13.444Z,27.92
2023-01-29T09:29:40.049Z,27.30
2023-01-29T09:32:07.156Z,25.23
2023-01-29T09:34:35.290Z,26.90
2023-01-29T09:37:01.922Z,25.08
2023-01-29T09:39:28.554Z,26.42
2023-01-29T09:42:15.678Z,26.13
2023-01-29T09:44:54.439Z,25.02
2023-01-29T09:47:21.764Z,27.02
2023-01-29T09:49:53.516Z,27.25
2023-01-29T09:52:28.411Z,27.35
2023-01-29T09:55:04.733Z,29.33
2023-01-29T09:57:51.113Z,28.23
2023-01-29T10:00:25.464Z,27.35
2023-01-29T10:03:30.695Z,27.85
2023-01-29T10:06:23.206Z,27.85
2023-01-29T10:09:03.808Z,24.38
2023-01-29T10:11:59.737Z,28.77
2023-01-29T10:14:41.644Z,30.02
2023-01-29T10:17:36.219Z,25.92
2023-01-29T10:20:30.578Z,26.13
2023-01-29T10:25:40.184Z,24.63
2023-01-29T10:28:28.209Z,26.10
2023-01-29T10:30:58.517Z,26.85
2023-01-29T10:33:48.831Z,30.05
2023-01-29T10:36:26.832Z,29.17
2023-01-29T10:38:53.531Z,25.48
2023-01-29T10:41:20.032Z,30.30
2023-01-29T10:44:01.604Z,27.83
2023-01-29T10:46:47.207Z,25.67
2023-01-29T10:49:27.285Z,29.75
2023-01-29T10:52:12.941Z,30.00
2023-01-29T10:55:01.564Z,25.52
2023-01-29T10:57:53.265Z,29.05
2023-01-29T11:00:22.933Z,28.73
2023-01-29T11:02:50.906Z,29.95
2023-01-29T11:05:26.210Z,27.92
2023-01-29T11:08:07.329Z,26.67
2023-01-29T11:10:41.260Z,28.40
2023-01-29T11:13:12.554Z,32.72
2023-01-29T11:15:39.225Z,32.17
2023-01-29T11:18:13.717Z,29.70
2023-01-29T11:20:41.807Z,30.65
2023-01-29T11:23:25.063Z,29.75
2023-01-29T11:25:55.991Z,30.92
2023-01-29T11:28:49.241Z,31.15
2023-01-29T11:31:27.292Z,30.37
2023-01-29T11:34:03.064Z,33.58
2023-01-29T11:36:38.307Z,33.55
2023-01-29T11:39:23.100Z,27.98
2023-01-29T11:41:53.422Z,26.38
2023-01-29T11:44:22.428Z,31.85
2023-01-29T11:46:49.752Z,31.70
2023-01-29T11:49:49.615Z,28.92
2023-01-29T11:52:19.219Z,30.48
2023-01-29T11:54:45.730Z,31.48
2023-01-29T11:57:26.490Z,33.38
2023-01-29T11:59:54.362Z,29.25
2023-01-29T12:02:26.648Z,32.67
2023-01-29T12:04:55.680Z,35.35
2023-01-29T12:07:22.355Z,33.40
2023-01-29T12:09:54.535Z,31.27
2023-01-29T12:12:40.139Z,32.38
2023-01-29T12:15:19.630Z,30.42
2023-01-29T12:17:52.558Z,30.83
2023-01-29T12:20:24.269Z,30.98
2023-01-29T12:22:58.170Z,31.77
2023-01-29T12:25:36.881Z,36.20
2023-01-29T12:28:14.931Z,31.45
2023-01-29T12:30:50.746Z,35.38
2023-01-29T12:33:39.683Z,37.25
2023-01-29T12:36:17.379Z,30.95
2023-01-29T12:38:44.972Z,41.50
2023-01-29T12:41:33.787Z,38.65
2023-01-29T12:44:12.061Z,32.17
2023-01-29T12:46:42.894Z,28.20
2023-01-29T12:49:15.999Z,31.13
2023-01-29T12:52:19.312Z,28.83
2023-01-29T12:54:54.953Z,26.50
2023-01-29T12:57:47.957Z,30.23
2023-01-29T13:00:23.208Z,30.20
2023-01-29T13:03:17.522Z,28.80
2023-01-29T13:05:51.479Z,25.58
2023-01-29T13:08:23.639Z,30.35
2023-01-29T13:10:52.644Z,31.90
2023-01-29T13:13:39.029Z,30.45
2023-01-29T13:16:10.922Z,28.42
2023-01-29T13:18:42.443Z,29.40
2023-01-29T13:21:15.559Z,31.60
2023-01-29T13:23:47.000Z,28.02
2023-01-29T13:26:17.809Z,28.23
2023-01-29T13:28:45.173Z,27.17
2023-01-29T13:31:32.691Z,26.63
2023-01-29T13:34:04.921Z,33.08
2023-01-29T13:36:32.116Z,29.85
2023-01-29T13:39:03.016Z,31.55
2023-01-29T13:41:33.492Z,31.90
2023-01-29T13:44:00.126Z,32.42
2023-01-29T13:46:27.054Z,33.10
2023-01-29T13:48:55.280Z,30.13
2023-01-29T13:51:22.977Z,34.38
2023-01-29T13:53:54.956Z,29.98
2023-01-29T13:56:42.108Z,32.65
2023-01-29T13:59:21.803Z,32.50
2023-01-29T14:01:50.649Z,32.75
2023-01-29T14:04:25.542Z,30.27
2023-01-29T14:06:56.783Z,32.00
2023-01-29T14:09:38.726Z,35.15
2023-01-29T14:12:25.316Z,37.30
2023-01-29T14:15:02.879Z,32.88
2023-01-29T14:17:29.763Z,34.85
2023-01-29T14:20:16.610Z,35.35
2023-01-29T14:22:43.217Z,42.90
2023-01-29T14:25:17.599Z,37.33
2023-01-29T14:27:48.646Z,35.88
2023-01-29T14:30:19.086Z,31.77
2023-01-29T14:32:49.966Z,37.60
2023-01-29T14:35:20.115Z,35.25
2023-01-29T14:37:52.705Z,35.65
2023-01-29T14:40:19.249Z,35.45
2023-01-29T14:43:06.988Z,35.72
2023-01-29T14:45:38.349Z,37.25
2023-01-29T14:48:11.256Z,38.17
2023-01-29T14:50:41.199Z,45.22
2023-01-29T14:53:21.182Z,42.45
2023-01-29T14:55:54.172Z,37.72
2023-01-29T14:58:36.690Z,41.05
2023-01-29T15:01:06.027Z,37.58
2023-01-29T15:03:40.119Z,37.90
2023-01-29T15:06:08.328Z,51.63
2023-01-29T15:08:45.877Z,93.38
2023-01-29T15:11:33.916Z,81.43
2023-01-29T15:14:16.695Z,47.17
2023-01-29T15:17:18.650Z,43.78
2023-01-29T15:19:50.798Z,38.28
2023-01-29T15:22:22.125Z,42.83
2023-01-29T15:25:04.127Z,41.50
2023-01-29T15:27:30.939Z,40.55
2023-01-29T15:30:00.439Z,43.08
2023-01-29T15:32:37.634Z,42.08
2023-01-29T15:35:17.288Z,40.88
2023-01-29T15:37:44.079Z,43.70
2023-01-29T15:40:16.538Z,42.72
2023-01-29T15:42:46.705Z,41.40
2023-01-29T15:45:30.918Z,43.58
2023-01-29T15:48:04.982Z,41.97
2023-01-29T15:50:33.305Z,37.58
2023-01-29T15:53:03.668Z,43.92
2023-01-29T15:55:30.639Z,42.17
2023-01-29T15:57:57.651Z,39.95
2023-01-29T16:00:27.670Z,42.25
2023-01-29T16:02:55.433Z,40.95
2023-01-29T16:05:27.625Z,43.90
2023-01-29T16:07:55.619Z,44.42
2023-01-29T16:10:27.627Z,41.08
2023-01-29T16:12:54.414Z,42.35
2023-01-29T16:15:28.158Z,42.67
2023-01-29T16:20:38.063Z,40.75
2023-01-29T16:23:05.393Z,40.88
2023-01-29T16:25:32.959Z,41.28
2023-01-29T16:28:03.851Z,54.33
2023-01-29T16:30:30.463Z,56.95
2023-01-29T16:33:08.360Z,55.15
2023-01-29T16:35:35.390Z,57.72
2023-01-29T16:38:06.072Z,57.97
2023-01-29T16:40:35.424Z,55.55
2023-01-29T16:43:17.267Z,58.20
2023-01-29T16:46:02.323Z,62.60
2023-01-29T16:48:34.319Z,58.42
2023-01-29T16:51:14.595Z,54.90
2023-01-29T16:54:13.550Z,56.50
2023-01-29T16:56:40.348Z,60.55
2023-01-29T16:59:07.028Z,59.65
2023-01-29T17:01:35.769Z,55.47
2023-01-29T17:04:13.811Z,59.42
2023-01-29T17:06:42.951Z,59.70
2023-01-29T17:09:22.571Z,58.00
2023-01-29T17:11:55.909Z,54.90
2023-01-29T17:14:24.418Z,54.38
2023-01-29T17:16:54.980Z,60.70
2023-01-29T17:19:23.687Z,183.23
2023-01-29T17:21:50.369Z,70.80
2023-01-29T17:24:16.987Z,196.82
2023-01-29T17:26:43.860Z,78.95
2023-01-29T17:29:15.588Z,74.75
2023-01-29T17:31:43.271Z,57.45
2023-01-29T17:34:14.707Z,60.80
2023-01-29T17:36:42.214Z,80.68
2023-01-29T17:39:15.260Z,59.92
2023-01-29T17:41:42.629Z,91.47
2023-01-29T17:44:09.165Z,131.20
2023-01-29T17:46:35.722Z,70.78
2023-01-29T17:49:04.409Z,65.55
2023-01-29T17:51:31.018Z,108.82
2023-01-29T17:53:57.736Z,67.35
2023-01-29T17:56:29.472Z,68.65
2023-01-29T17:58:56.314Z,74.50
2023-01-29T18:01:22.920Z,212.57
2023-01-29T18:03:49.502Z,66.30
2023-01-29T18:06:27.115Z,189.55
2023-01-29T18:08:53.800Z,95.03
2023-01-29T18:11:20.337Z,87.25
2023-01-29T18:13:46.873Z,96.28
2023-01-29T18:16:13.514Z,146.27
2023-01-29T18:18:40.420Z,99.85
2023-01-29T18:21:07.974Z,73.18
2023-01-29T18:23:34.603Z,62.42
2023-01-29T18:26:01.268Z,54.03
2023-01-29T18:28:27.949Z,49.72
2023-01-29T18:30:54.673Z,57.15
2023-01-29T18:33:24.239Z,55.20
2023-01-29T18:35:50.993Z,58.28
2023-01-29T18:38:17.805Z,57.13
2023-01-29T18:40:44.427Z,58.92
2023-01-29T18:43:11.237Z,59.65
2023-01-29T18:45:37.887Z,60.63
2023-01-29T18:48:05.103Z,58.45
2023-01-29T18:50:31.709Z,65.50
2023-01-29T18:52:58.293Z,62.30
2023-01-29T18:55:26.560Z,65.00
2023-01-29T18:58:27.996Z,68.97
2023-01-29T19:00:40.981Z,66.40
2023-01-29T19:03:07.614Z,68.30
2023-01-29T19:05:34.343Z,63.35
2023-01-29T19:08:01.934Z,65.32
2023-01-29T19:10:28.688Z,59.40
2023-01-29T19:12:55.452Z,56.92
2023-01-29T19:15:22.809Z,60.90
2023-01-29T19:17:53.035Z,61.30
2023-01-29T19:20:20.116Z,61.15
2023-01-29T19:22:46.836Z,60.67
2023-01-29T19:25:13.727Z,62.53
2023-01-29T19:27:40.296Z,64.45
2023-01-29T19:30:07.981Z,59.88
2023-01-29T19:32:34.625Z,64.13
2023-01-29T19:35:01.182Z,63.72
2023-01-29T19:37:28.106Z,66.10
2023-01-29T19:39:54.738Z,67.00
2023-01-29T19:42:21.381Z,63.50
2023-01-29T19:44:48.125Z,66.53
2023-01-29T19:47:15.044Z,62.75
2023-01-29T19:49:41.816Z,67.30
2023-01-29T19:52:14.744Z,60.50
2023-01-29T19:54:46.122Z,65.55
2023-01-29T19:57:12.828Z,60.08
2023-01-29T19:59:40.667Z,63.78
2023-01-29T20:02:07.322Z,63.60
2023-01-29T20:04:33.881Z,64.22
2023-01-29T20:07:00.446Z,65.68
2023-01-29T20:09:29.348Z,63.90
2023-01-29T20:11:55.938Z,62.30
2023-01-29T20:14:22.633Z,65.53
2023-01-29T20:16:49.155Z,63.78
2023-01-29T20:19:15.869Z,62.10
2023-01-29T20:21:45.270Z,59.38
2023-01-29T20:24:13.040Z,62.00
2023-01-29T20:26:39.680Z,58.70
2023-01-29T20:29:06.551Z,63.72
2023-01-29T20:31:33.395Z,58.03
2023-01-29T20:34:00.083Z,76.20
2023-01-29T20:36:26.690Z,73.32
2023-01-29T20:38:53.358Z,69.72
2023-01-29T20:41:19.968Z,65.50
2023-01-29T20:43:47.294Z,70.57
2023-01-29T20:46:14.153Z,65.55
2023-01-29T20:48:42.090Z,66.80
2023-01-29T20:51:13.012Z,102.78
2023-01-29T20:53:41.077Z,62.92
2023-01-29T20:56:08.306Z,65.45
2023-01-29T20:58:36.057Z,68.07
2023-01-29T21:01:08.268Z,59.85
2023-01-29T21:03:35.145Z,67.50
2023-01-29T21:06:01.707Z,76.70
2023-01-29T21:08:28.351Z,82.80
2023-01-29T21:10:54.996Z,71.68
2023-01-29T21:13:21.670Z,62.60
2023-01-29T21:15:50.076Z,65.88
2023-01-29T21:18:16.943Z,56.92
2023-01-29T21:20:45.019Z,58.75
2023-01-29T21:23:11.619Z,51.45
2023-01-29T21:25:38.745Z,53.38
2023-01-29T21:28:06.182Z,58.55
2023-01-29T21:30:33.853Z,53.03
2023-01-29T21:33:00.486Z,52.72
2023-01-29T21:35:27.381Z,56.70
2023-01-29T21:37:53.910Z,50.13
2023-01-29T21:40:25.305Z,55.78
2023-01-29T21:43:10.685Z,52.53
2023-01-29T21:45:41.407Z,53.30
2023-01-29T21:48:09.620Z,54.20
2023-01-29T21:50:36.447Z,56.67
2023-01-29T21:53:03.168Z,53.58
2023-01-29T21:55:29.949Z,55.72
2023-01-29T21:57:56.594Z,54.42
2023-01-29T22:00:23.216Z,46.13
2023-01-29T22:02:51.220Z,51.47
2023-01-29T22:05:19.799Z,51.10
2023-01-29T22:07:47.897Z,55.83
2023-01-29T22:10:16.281Z,49.22
2023-01-29T22:12:44.514Z,54.63
2023-01-29T22:15:11.619Z,49.13
2023-01-29T22:17:41.185Z,51.17
2023-01-29T22:20:12.573Z,53.28
2023-01-29T22:22:39.280Z,56.42
2023-01-29T22:25:06.562Z,61.67
2023-01-29T22:27:33.919Z,51.70
2023-01-29T22:30:00.535Z,46.88
2023-01-29T22:32:27.366Z,45.55
2023-01-29T22:34:54.106Z,49.20
2023-01-29T22:37:20.677Z,51.40
2023-01-29T22:39:47.251Z,52.70
2023-01-29T22:42:13.863Z,44.53
2023-01-29T22:44:40.494Z,47.65
2023-01-29T22:47:07.186Z,48.45
2023-01-29T22:49:33.813Z,41.88
2023-01-29T22:52:12.650Z,43.80
2023-01-29T22:54:41.249Z,45.20
2023-01-29T22:57:10.606Z,49.17
2023-01-29T22:59:37.735Z,47.28
2023-01-29T23:02:04.927Z,51.20
2023-01-29T23:04:31.586Z,43.97
2023-01-29T23:06:58.322Z,47.25
2023-01-29T23:09:25.110Z,47.15
2023-01-29T23:11:51.733Z,47.72
2023-01-29T23:14:18.658Z,43.83
2023-01-29T23:16:45.274Z,42.55
2023-01-29T23:19:12.264Z,43.55
2023-01-29T23:21:39.765Z,45.10
2023-01-29T23:24:07.964Z,46.55
2023-01-29T23:26:53.333Z,47.75
2023-01-29T23:29:20.238Z,43.50
2023-01-29T23:31:47.099Z,41.55
2023-01-29T23:34:14.272Z,46.58
2023-01-29T23:36:41.687Z,43.00
2023-01-29T23:39:08.346Z,44.58
2023-01-29T23:41:35.956Z,43.20
2023-01-29T23:44:03.197Z,43.70
2023-01-29T23:46:30.136Z,37.75
2023-01-29T23:48:57.051Z,46.47
2023-01-29T23:51:23.766Z,40.35
2023-01-29T23:53:50.373Z,45.58
2023-01-29T23:56:17.065Z,42.88
2023-01-29T23:58:44.772Z,42.45
